sensor_id;sensor_type;location;lat;lon;timestamp;P1;durP1;ratioP1;P2;durP2;ratioP2
76597;SDS011;65486;53.144;18.134;2024-02-28T00:00:56;32.40;;;11.80;;
76597;SDS011;65486;53.144;18.134;2024-02-28T00:03:42;21.90;;;8.80;;
76597;SDS011;65486;53.144;18.134;2024-02-28T00:06:10;47.30;;;16.30;;
76597;SDS011;65486;53.144;18.134;2024-02-28T00:08:37;44.70;;;15.70;;
76597;SDS011;65486;53.144;18.134;2024-02-28T00:11:05;35.00;;;12.40;;
76597;SDS011;65486;53.144;18.134;2024-02-28T00:13:35;39.80;;;13.90;;
76597;SDS011;65486;53.144;18.134;2024-02-28T00:16:02;38.00;;;13.20;;
76597;SDS011;65486;53.144;18.134;2024-02-28T00:18:31;37.40;;;13.50;;
76597;SDS011;65486;53.144;18.134;2024-02-28T00:20:57;34.30;;;12.30;;
76597;SDS011;65486;53.144;18.134;2024-02-28T00:23:27;34.40;;;11.70;;
76597;SDS011;65486;53.144;18.134;2024-02-28T00:25:57;37.30;;;11.90;;
76597;SDS011;65486;53.144;18.134;2024-02-28T00:28:26;29.70;;;10.20;;
76597;SDS011;65486;53.144;18.134;2024-02-28T00:30:53;34.70;;;11.60;;
76597;SDS011;65486;53.144;18.134;2024-02-28T00:33:22;27.00;;;9.60;;
76597;SDS011;65486;53.144;18.134;2024-02-28T00:35:53;34.80;;;11.50;;
76597;SDS011;65486;53.144;18.134;2024-02-28T00:38:20;35.20;;;12.00;;
76597;SDS011;65486;53.144;18.134;2024-02-28T00:40:51;46.20;;;15.10;;
76597;SDS011;65486;53.144;18.134;2024-02-28T00:43:21;35.50;;;12.60;;
76597;SDS011;65486;53.144;18.134;2024-02-28T00:45:49;30.80;;;11.20;;
76597;SDS011;65486;53.144;18.134;2024-02-28T00:48:16;39.10;;;12.90;;
76597;SDS011;65486;53.144;18.134;2024-02-28T00:50:43;30.20;;;9.90;;
76597;SDS011;65486;53.144;18.134;2024-02-28T00:53:11;28.80;;;9.90;;
76597;SDS011;65486;53.144;18.134;2024-02-28T00:55:38;31.50;;;10.90;;
76597;SDS011;65486;53.144;18.134;2024-02-28T00:58:06;32.40;;;10.50;;
76597;SDS011;65486;53.144;18.134;2024-02-28T01:00:32;38.50;;;13.50;;
76597;SDS011;65486;53.144;18.134;2024-02-28T01:03:02;37.20;;;12.70;;
76597;SDS011;65486;53.144;18.134;2024-02-28T01:05:30;32.00;;;11.50;;
76597;SDS011;65486;53.144;18.134;2024-02-28T01:07:57;30.60;;;11.20;;
76597;SDS011;65486;53.144;18.134;2024-02-28T01:10:24;30.30;;;11.20;;
76597;SDS011;65486;53.144;18.134;2024-02-28T01:12:51;38.80;;;13.30;;
76597;SDS011;65486;53.144;18.134;2024-02-28T01:15:21;24.00;;;9.20;;
76597;SDS011;65486;53.144;18.134;2024-02-28T01:17:48;24.90;;;8.50;;
76597;SDS011;65486;53.144;18.134;2024-02-28T01:20:15;39.50;;;12.00;;
76597;SDS011;65486;53.144;18.134;2024-02-28T01:22:42;38.40;;;12.70;;
76597;SDS011;65486;53.144;18.134;2024-02-28T01:25:09;34.40;;;12.60;;
76597;SDS011;65486;53.144;18.134;2024-02-28T01:27:36;43.80;;;14.50;;
76597;SDS011;65486;53.144;18.134;2024-02-28T01:30:02;44.20;;;15.30;;
76597;SDS011;65486;53.144;18.134;2024-02-28T01:32:31;28.70;;;10.50;;
76597;SDS011;65486;53.144;18.134;2024-02-28T01:35:00;30.30;;;10.40;;
76597;SDS011;65486;53.144;18.134;2024-02-28T01:37:30;44.40;;;15.80;;
76597;SDS011;65486;53.144;18.134;2024-02-28T01:40:04;30.50;;;10.10;;
76597;SDS011;65486;53.144;18.134;2024-02-28T01:42:31;23.30;;;8.00;;
76597;SDS011;65486;53.144;18.134;2024-02-28T01:44:59;30.20;;;10.10;;
76597;SDS011;65486;53.144;18.134;2024-02-28T01:47:26;30.20;;;10.70;;
76597;SDS011;65486;53.144;18.134;2024-02-28T01:49:57;29.10;;;9.60;;
76597;SDS011;65486;53.144;18.134;2024-02-28T01:52:31;28.40;;;9.70;;
76597;SDS011;65486;53.144;18.134;2024-02-28T01:54:58;42.90;;;14.10;;
76597;SDS011;65486;53.144;18.134;2024-02-28T01:57:29;25.00;;;8.30;;
76597;SDS011;65486;53.144;18.134;2024-02-28T02:00:18;25.20;;;8.70;;
76597;SDS011;65486;53.144;18.134;2024-02-28T02:02:45;33.90;;;11.40;;
76597;SDS011;65486;53.144;18.134;2024-02-28T02:05:13;43.70;;;13.50;;
76597;SDS011;65486;53.144;18.134;2024-02-28T02:07:42;27.20;;;8.90;;
76597;SDS011;65486;53.144;18.134;2024-02-28T02:10:09;29.20;;;9.30;;
76597;SDS011;65486;53.144;18.134;2024-02-28T02:12:38;24.70;;;9.10;;
76597;SDS011;65486;53.144;18.134;2024-02-28T02:15:05;24.70;;;7.50;;
76597;SDS011;65486;53.144;18.134;2024-02-28T02:17:33;27.40;;;9.40;;
76597;SDS011;65486;53.144;18.134;2024-02-28T02:20:03;29.90;;;10.10;;
76597;SDS011;65486;53.144;18.134;2024-02-28T02:22:38;27.70;;;9.30;;
76597;SDS011;65486;53.144;18.134;2024-02-28T02:25:04;30.30;;;9.70;;
76597;SDS011;65486;53.144;18.134;2024-02-28T02:27:37;23.10;;;7.50;;
76597;SDS011;65486;53.144;18.134;2024-02-28T02:30:04;33.00;;;11.60;;
76597;SDS011;65486;53.144;18.134;2024-02-28T02:32:32;31.50;;;9.80;;
76597;SDS011;65486;53.144;18.134;2024-02-28T02:35:00;32.90;;;10.00;;
76597;SDS011;65486;53.144;18.134;2024-02-28T02:37:28;25.00;;;7.50;;
76597;SDS011;65486;53.144;18.134;2024-02-28T02:39:54;42.10;;;13.30;;
76597;SDS011;65486;53.144;18.134;2024-02-28T02:42:23;34.40;;;11.20;;
76597;SDS011;65486;53.144;18.134;2024-02-28T02:44:50;30.60;;;9.80;;
76597;SDS011;65486;53.144;18.134;2024-02-28T02:47:17;35.80;;;11.90;;
76597;SDS011;65486;53.144;18.134;2024-02-28T02:49:43;40.90;;;12.40;;
76597;SDS011;65486;53.144;18.134;2024-02-28T02:52:10;34.90;;;11.30;;
76597;SDS011;65486;53.144;18.134;2024-02-28T02:54:38;44.00;;;12.70;;
76597;SDS011;65486;53.144;18.134;2024-02-28T02:57:05;37.40;;;10.90;;
76597;SDS011;65486;53.144;18.134;2024-02-28T02:59:32;46.50;;;12.70;;
76597;SDS011;65486;53.144;18.134;2024-02-28T03:01:59;41.20;;;12.10;;
76597;SDS011;65486;53.144;18.134;2024-02-28T03:04:25;36.90;;;10.60;;
76597;SDS011;65486;53.144;18.134;2024-02-28T03:06:53;47.70;;;14.00;;
76597;SDS011;65486;53.144;18.134;2024-02-28T03:09:22;35.90;;;11.20;;
76597;SDS011;65486;53.144;18.134;2024-02-28T03:11:51;31.60;;;10.00;;
76597;SDS011;65486;53.144;18.134;2024-02-28T03:14:17;35.10;;;10.40;;
76597;SDS011;65486;53.144;18.134;2024-02-28T03:16:45;48.00;;;15.10;;
76597;SDS011;65486;53.144;18.134;2024-02-28T03:19:12;36.50;;;11.50;;
76597;SDS011;65486;53.144;18.134;2024-02-28T03:21:39;32.40;;;9.50;;
76597;SDS011;65486;53.144;18.134;2024-02-28T03:24:05;31.40;;;9.10;;
76597;SDS011;65486;53.144;18.134;2024-02-28T03:26:34;38.60;;;12.00;;
76597;SDS011;65486;53.144;18.134;2024-02-28T03:29:00;44.30;;;13.20;;
76597;SDS011;65486;53.144;18.134;2024-02-28T03:31:32;35.50;;;10.80;;
76597;SDS011;65486;53.144;18.134;2024-02-28T03:33:59;47.80;;;14.30;;
76597;SDS011;65486;53.144;18.134;2024-02-28T03:36:28;44.90;;;14.70;;
76597;SDS011;65486;53.144;18.134;2024-02-28T03:38:55;40.10;;;13.00;;
76597;SDS011;65486;53.144;18.134;2024-02-28T03:41:21;38.00;;;11.90;;
76597;SDS011;65486;53.144;18.134;2024-02-28T03:43:48;35.60;;;11.60;;
76597;SDS011;65486;53.144;18.134;2024-02-28T03:46:16;41.00;;;11.80;;
76597;SDS011;65486;53.144;18.134;2024-02-28T03:48:47;42.80;;;12.80;;
76597;SDS011;65486;53.144;18.134;2024-02-28T03:51:13;44.30;;;13.90;;
76597;SDS011;65486;53.144;18.134;2024-02-28T03:53:42;30.90;;;10.00;;
76597;SDS011;65486;53.144;18.134;2024-02-28T03:56:08;37.50;;;11.00;;
76597;SDS011;65486;53.144;18.134;2024-02-28T03:58:36;41.00;;;13.30;;
76597;SDS011;65486;53.144;18.134;2024-02-28T04:01:07;29.90;;;10.20;;
76597;SDS011;65486;53.144;18.134;2024-02-28T04:03:35;37.50;;;13.40;;
76597;SDS011;65486;53.144;18.134;2024-02-28T04:06:05;25.80;;;9.10;;
76597;SDS011;65486;53.144;18.134;2024-02-28T04:08:31;31.30;;;11.10;;
76597;SDS011;65486;53.144;18.134;2024-02-28T04:10:58;38.60;;;13.10;;
76597;SDS011;65486;53.144;18.134;2024-02-28T04:13:24;34.60;;;10.50;;
76597;SDS011;65486;53.144;18.134;2024-02-28T04:15:51;34.70;;;12.00;;
76597;SDS011;65486;53.144;18.134;2024-02-28T04:18:23;42.90;;;13.20;;
76597;SDS011;65486;53.144;18.134;2024-02-28T04:20:53;43.00;;;13.90;;
76597;SDS011;65486;53.144;18.134;2024-02-28T04:23:23;31.50;;;10.50;;
76597;SDS011;65486;53.144;18.134;2024-02-28T04:25:54;28.20;;;9.40;;
76597;SDS011;65486;53.144;18.134;2024-02-28T04:28:21;47.20;;;14.90;;
76597;SDS011;65486;53.144;18.134;2024-02-28T04:30:48;39.80;;;11.40;;
76597;SDS011;65486;53.144;18.134;2024-02-28T04:33:15;39.70;;;12.20;;
76597;SDS011;65486;53.144;18.134;2024-02-28T04:35:43;38.40;;;11.50;;
76597;SDS011;65486;53.144;18.134;2024-02-28T04:38:10;51.00;;;15.80;;
76597;SDS011;65486;53.144;18.134;2024-02-28T04:40:37;34.10;;;11.20;;
76597;SDS011;65486;53.144;18.134;2024-02-28T04:43:03;41.10;;;13.00;;
76597;SDS011;65486;53.144;18.134;2024-02-28T04:45:29;38.70;;;12.90;;
76597;SDS011;65486;53.144;18.134;2024-02-28T04:47:56;31.60;;;11.20;;
76597;SDS011;65486;53.144;18.134;2024-02-28T04:50:23;34.50;;;12.10;;
76597;SDS011;65486;53.144;18.134;2024-02-28T04:52:50;33.20;;;11.50;;
76597;SDS011;65486;53.144;18.134;2024-02-28T04:55:16;31.80;;;12.10;;
76597;SDS011;65486;53.144;18.134;2024-02-28T04:57:44;24.10;;;9.10;;
76597;SDS011;65486;53.144;18.134;2024-02-28T05:00:10;44.80;;;15.00;;
76597;SDS011;65486;53.144;18.134;2024-02-28T05:02:41;41.70;;;14.50;;
76597;SDS011;65486;53.144;18.134;2024-02-28T05:05:07;32.50;;;11.60;;
76597;SDS011;65486;53.144;18.134;2024-02-28T05:07:34;35.90;;;12.20;;
76597;SDS011;65486;53.144;18.134;2024-02-28T05:10:01;25.90;;;9.20;;
76597;SDS011;65486;53.144;18.134;2024-02-28T05:12:27;37.60;;;13.60;;
76597;SDS011;65486;53.144;18.134;2024-02-28T05:14:55;33.80;;;12.90;;
76597;SDS011;65486;53.144;18.134;2024-02-28T05:17:24;32.90;;;11.90;;
76597;SDS011;65486;53.144;18.134;2024-02-28T05:19:54;21.10;;;7.80;;
76597;SDS011;65486;53.144;18.134;2024-02-28T05:22:24;26.40;;;9.50;;
76597;SDS011;65486;53.144;18.134;2024-02-28T05:24:50;30.60;;;11.00;;
76597;SDS011;65486;53.144;18.134;2024-02-28T05:27:19;27.50;;;9.60;;
76597;SDS011;65486;53.144;18.134;2024-02-28T05:29:47;33.20;;;10.70;;
76597;SDS011;65486;53.144;18.134;2024-02-28T05:32:14;34.60;;;11.90;;
76597;SDS011;65486;53.144;18.134;2024-02-28T05:34:45;27.10;;;9.40;;
76597;SDS011;65486;53.144;18.134;2024-02-28T05:37:12;36.10;;;13.00;;
76597;SDS011;65486;53.144;18.134;2024-02-28T05:39:42;24.30;;;9.40;;
76597;SDS011;65486;53.144;18.134;2024-02-28T05:42:12;26.00;;;8.50;;
76597;SDS011;65486;53.144;18.134;2024-02-28T05:44:44;27.30;;;10.20;;
76597;SDS011;65486;53.144;18.134;2024-02-28T05:47:13;26.20;;;10.00;;
76597;SDS011;65486;53.144;18.134;2024-02-28T05:49:46;21.10;;;8.90;;
76597;SDS011;65486;53.144;18.134;2024-02-28T05:52:12;22.90;;;8.50;;
76597;SDS011;65486;53.144;18.134;2024-02-28T05:54:40;22.00;;;8.90;;
76597;SDS011;65486;53.144;18.134;2024-02-28T05:57:10;28.50;;;9.70;;
76597;SDS011;65486;53.144;18.134;2024-02-28T05:59:37;25.20;;;9.30;;
76597;SDS011;65486;53.144;18.134;2024-02-28T06:02:03;25.60;;;9.30;;
76597;SDS011;65486;53.144;18.134;2024-02-28T06:04:29;19.40;;;7.80;;
76597;SDS011;65486;53.144;18.134;2024-02-28T06:06:58;24.30;;;8.90;;
76597;SDS011;65486;53.144;18.134;2024-02-28T06:09:27;26.60;;;9.50;;
76597;SDS011;65486;53.144;18.134;2024-02-28T06:11:56;26.80;;;10.50;;
76597;SDS011;65486;53.144;18.134;2024-02-28T06:14:24;26.40;;;10.70;;
76597;SDS011;65486;53.144;18.134;2024-02-28T06:16:50;29.90;;;12.30;;
76597;SDS011;65486;53.144;18.134;2024-02-28T06:19:20;25.80;;;9.40;;
76597;SDS011;65486;53.144;18.134;2024-02-28T06:21:47;25.50;;;9.40;;
76597;SDS011;65486;53.144;18.134;2024-02-28T06:24:14;21.50;;;8.10;;
76597;SDS011;65486;53.144;18.134;2024-02-28T06:26:47;25.40;;;8.30;;
76597;SDS011;65486;53.144;18.134;2024-02-28T06:29:13;35.30;;;12.70;;
76597;SDS011;65486;53.144;18.134;2024-02-28T06:31:43;24.80;;;8.20;;
76597;SDS011;65486;53.144;18.134;2024-02-28T06:34:11;36.60;;;12.40;;
76597;SDS011;65486;53.144;18.134;2024-02-28T06:36:39;33.20;;;11.00;;
76597;SDS011;65486;53.144;18.134;2024-02-28T06:39:06;28.50;;;10.10;;
76597;SDS011;65486;53.144;18.134;2024-02-28T06:41:32;31.00;;;9.10;;
76597;SDS011;65486;53.144;18.134;2024-02-28T06:43:59;42.10;;;12.30;;
76597;SDS011;65486;53.144;18.134;2024-02-28T06:46:26;29.40;;;9.00;;
76597;SDS011;65486;53.144;18.134;2024-02-28T06:48:52;43.70;;;14.60;;
76597;SDS011;65486;53.144;18.134;2024-02-28T06:51:19;40.20;;;12.50;;
76597;SDS011;65486;53.144;18.134;2024-02-28T06:53:45;28.90;;;9.90;;
76597;SDS011;65486;53.144;18.134;2024-02-28T06:56:12;33.70;;;11.10;;
76597;SDS011;65486;53.144;18.134;2024-02-28T06:58:38;30.20;;;10.00;;
76597;SDS011;65486;53.144;18.134;2024-02-28T07:01:05;27.80;;;8.50;;
76597;SDS011;65486;53.144;18.134;2024-02-28T07:03:31;31.20;;;9.80;;
76597;SDS011;65486;53.144;18.134;2024-02-28T07:05:57;31.40;;;10.10;;
76597;SDS011;65486;53.144;18.134;2024-02-28T07:08:25;30.50;;;10.00;;
76597;SDS011;65486;53.144;18.134;2024-02-28T07:10:51;28.00;;;8.60;;
76597;SDS011;65486;53.144;18.134;2024-02-28T07:13:20;27.40;;;8.80;;
76597;SDS011;65486;53.144;18.134;2024-02-28T07:15:48;32.30;;;10.50;;
76597;SDS011;65486;53.144;18.134;2024-02-28T07:18:15;38.00;;;12.90;;
76597;SDS011;65486;53.144;18.134;2024-02-28T07:20:41;32.10;;;9.50;;
76597;SDS011;65486;53.144;18.134;2024-02-28T07:23:09;34.90;;;10.80;;
76597;SDS011;65486;53.144;18.134;2024-02-28T07:25:35;25.10;;;8.30;;
76597;SDS011;65486;53.144;18.134;2024-02-28T07:28:01;33.50;;;11.00;;
76597;SDS011;65486;53.144;18.134;2024-02-28T07:30:31;39.00;;;12.10;;
76597;SDS011;65486;53.144;18.134;2024-02-28T07:32:59;30.70;;;9.80;;
76597;SDS011;65486;53.144;18.134;2024-02-28T07:35:25;37.60;;;12.40;;
76597;SDS011;65486;53.144;18.134;2024-02-28T07:37:51;34.40;;;11.60;;
76597;SDS011;65486;53.144;18.134;2024-02-28T07:40:18;28.20;;;9.70;;
76597;SDS011;65486;53.144;18.134;2024-02-28T07:42:46;35.80;;;11.70;;
76597;SDS011;65486;53.144;18.134;2024-02-28T07:45:14;31.60;;;9.90;;
76597;SDS011;65486;53.144;18.134;2024-02-28T07:47:44;30.60;;;9.70;;
76597;SDS011;65486;53.144;18.134;2024-02-28T07:50:11;34.70;;;10.70;;
76597;SDS011;65486;53.144;18.134;2024-02-28T07:52:42;37.10;;;12.30;;
76597;SDS011;65486;53.144;18.134;2024-02-28T07:55:08;35.00;;;11.50;;
76597;SDS011;65486;53.144;18.134;2024-02-28T07:57:35;42.60;;;13.20;;
76597;SDS011;65486;53.144;18.134;2024-02-28T08:00:02;30.10;;;10.30;;
76597;SDS011;65486;53.144;18.134;2024-02-28T08:02:38;27.00;;;10.00;;
76597;SDS011;65486;53.144;18.134;2024-02-28T08:05:08;30.30;;;11.00;;
76597;SDS011;65486;53.144;18.134;2024-02-28T08:07:35;27.20;;;9.30;;
76597;SDS011;65486;53.144;18.134;2024-02-28T08:10:03;32.10;;;10.30;;
76597;SDS011;65486;53.144;18.134;2024-02-28T08:12:33;28.90;;;10.40;;
76597;SDS011;65486;53.144;18.134;2024-02-28T08:15:04;28.20;;;10.20;;
76597;SDS011;65486;53.144;18.134;2024-02-28T08:17:32;32.50;;;11.50;;
76597;SDS011;65486;53.144;18.134;2024-02-28T08:20:00;31.50;;;10.60;;
76597;SDS011;65486;53.144;18.134;2024-02-28T08:22:27;26.10;;;9.00;;
76597;SDS011;65486;53.144;18.134;2024-02-28T08:24:53;22.80;;;9.00;;
76597;SDS011;65486;53.144;18.134;2024-02-28T08:27:20;18.90;;;7.50;;
76597;SDS011;65486;53.144;18.134;2024-02-28T08:29:49;16.40;;;5.80;;
76597;SDS011;65486;53.144;18.134;2024-02-28T08:32:17;24.20;;;8.20;;
76597;SDS011;65486;53.144;18.134;2024-02-28T08:34:46;25.70;;;9.90;;
76597;SDS011;65486;53.144;18.134;2024-02-28T08:37:17;18.40;;;7.50;;
76597;SDS011;65486;53.144;18.134;2024-02-28T08:39:44;25.30;;;8.80;;
76597;SDS011;65486;53.144;18.134;2024-02-28T08:42:10;22.30;;;9.40;;
76597;SDS011;65486;53.144;18.134;2024-02-28T08:44:36;24.80;;;9.70;;
76597;SDS011;65486;53.144;18.134;2024-02-28T08:47:03;23.00;;;9.20;;
76597;SDS011;65486;53.144;18.134;2024-02-28T08:49:30;22.10;;;8.80;;
76597;SDS011;65486;53.144;18.134;2024-02-28T08:51:57;22.70;;;10.00;;
76597;SDS011;65486;53.144;18.134;2024-02-28T08:54:24;24.90;;;8.90;;
76597;SDS011;65486;53.144;18.134;2024-02-28T08:56:51;21.70;;;9.10;;
76597;SDS011;65486;53.144;18.134;2024-02-28T08:59:23;15.70;;;6.60;;
76597;SDS011;65486;53.144;18.134;2024-02-28T09:01:51;22.40;;;8.90;;
76597;SDS011;65486;53.144;18.134;2024-02-28T09:04:22;18.60;;;8.50;;
76597;SDS011;65486;53.144;18.134;2024-02-28T09:06:52;16.10;;;7.50;;
76597;SDS011;65486;53.144;18.134;2024-02-28T09:09:21;20.20;;;9.30;;
76597;SDS011;65486;53.144;18.134;2024-02-28T09:11:48;18.50;;;8.00;;
76597;SDS011;65486;53.144;18.134;2024-02-28T09:14:15;20.90;;;8.30;;
76597;SDS011;65486;53.144;18.134;2024-02-28T09:16:42;22.60;;;10.30;;
76597;SDS011;65486;53.144;18.134;2024-02-28T09:19:09;21.80;;;10.60;;
76597;SDS011;65486;53.144;18.134;2024-02-28T09:21:35;22.20;;;10.00;;
76597;SDS011;65486;53.144;18.134;2024-02-28T09:24:03;21.60;;;9.60;;
76597;SDS011;65486;53.144;18.134;2024-02-28T09:26:30;20.90;;;9.60;;
76597;SDS011;65486;53.144;18.134;2024-02-28T09:28:56;19.50;;;8.80;;
76597;SDS011;65486;53.144;18.134;2024-02-28T09:31:24;14.30;;;6.80;;
76597;SDS011;65486;53.144;18.134;2024-02-28T09:33:52;24.70;;;10.30;;
76597;SDS011;65486;53.144;18.134;2024-02-28T09:36:20;20.00;;;9.00;;
76597;SDS011;65486;53.144;18.134;2024-02-28T09:38:47;20.60;;;8.90;;
76597;SDS011;65486;53.144;18.134;2024-02-28T09:41:15;24.70;;;10.10;;
76597;SDS011;65486;53.144;18.134;2024-02-28T09:43:45;21.50;;;9.70;;
76597;SDS011;65486;53.144;18.134;2024-02-28T09:46:12;24.00;;;11.10;;
76597;SDS011;65486;53.144;18.134;2024-02-28T09:48:40;21.50;;;10.00;;
76597;SDS011;65486;53.144;18.134;2024-02-28T09:51:11;23.90;;;10.60;;
76597;SDS011;65486;53.144;18.134;2024-02-28T09:53:39;23.40;;;10.70;;
76597;SDS011;65486;53.144;18.134;2024-02-28T09:56:07;23.20;;;10.80;;
76597;SDS011;65486;53.144;18.134;2024-02-28T09:58:34;20.30;;;8.60;;
76597;SDS011;65486;53.144;18.134;2024-02-28T10:01:05;22.20;;;10.20;;
76597;SDS011;65486;53.144;18.134;2024-02-28T10:03:38;19.80;;;9.20;;
76597;SDS011;65486;53.144;18.134;2024-02-28T10:06:08;23.50;;;9.90;;
76597;SDS011;65486;53.144;18.134;2024-02-28T10:08:35;21.50;;;9.50;;
76597;SDS011;65486;53.144;18.134;2024-02-28T10:11:03;19.50;;;8.90;;
76597;SDS011;65486;53.144;18.134;2024-02-28T10:13:30;20.30;;;9.10;;
76597;SDS011;65486;53.144;18.134;2024-02-28T10:15:56;15.00;;;7.30;;
76597;SDS011;65486;53.144;18.134;2024-02-28T10:18:31;17.60;;;8.50;;
76597;SDS011;65486;53.144;18.134;2024-02-28T10:20:59;19.80;;;8.30;;
76597;SDS011;65486;53.144;18.134;2024-02-28T10:23:26;18.80;;;9.10;;
76597;SDS011;65486;53.144;18.134;2024-02-28T10:25:53;20.30;;;8.00;;
76597;SDS011;65486;53.144;18.134;2024-02-28T10:28:21;16.80;;;7.40;;
76597;SDS011;65486;53.144;18.134;2024-02-28T10:30:50;18.70;;;8.90;;
76597;SDS011;65486;53.144;18.134;2024-02-28T10:33:25;20.70;;;9.00;;
76597;SDS011;65486;53.144;18.134;2024-02-28T10:35:56;21.00;;;9.40;;
76597;SDS011;65486;53.144;18.134;2024-02-28T10:38:27;19.60;;;8.40;;
76597;SDS011;65486;53.144;18.134;2024-02-28T10:40:59;20.30;;;8.90;;
76597;SDS011;65486;53.144;18.134;2024-02-28T10:43:28;21.10;;;9.20;;
76597;SDS011;65486;53.144;18.134;2024-02-28T10:46:02;22.40;;;9.80;;
76597;SDS011;65486;53.144;18.134;2024-02-28T10:48:30;22.30;;;9.00;;
76597;SDS011;65486;53.144;18.134;2024-02-28T10:50:56;29.30;;;12.00;;
76597;SDS011;65486;53.144;18.134;2024-02-28T10:53:37;23.30;;;9.40;;
76597;SDS011;65486;53.144;18.134;2024-02-28T10:56:09;23.20;;;9.60;;
76597;SDS011;65486;53.144;18.134;2024-02-28T10:58:41;25.70;;;11.10;;
76597;SDS011;65486;53.144;18.134;2024-02-28T11:01:18;23.70;;;10.30;;
76597;SDS011;65486;53.144;18.134;2024-02-28T11:03:46;24.60;;;9.90;;
76597;SDS011;65486;53.144;18.134;2024-02-28T11:06:16;26.50;;;10.80;;
76597;SDS011;65486;53.144;18.134;2024-02-28T11:08:45;23.10;;;9.50;;
76597;SDS011;65486;53.144;18.134;2024-02-28T11:11:19;22.30;;;9.80;;
76597;SDS011;65486;53.144;18.134;2024-02-28T11:13:56;22.60;;;8.90;;
76597;SDS011;65486;53.144;18.134;2024-02-28T11:16:32;16.70;;;7.30;;
76597;SDS011;65486;53.144;18.134;2024-02-28T11:19:00;21.20;;;7.90;;
76597;SDS011;65486;53.144;18.134;2024-02-28T11:21:29;15.00;;;6.90;;
76597;SDS011;65486;53.144;18.134;2024-02-28T11:24:01;21.10;;;9.20;;
76597;SDS011;65486;53.144;18.134;2024-02-28T11:26:29;21.10;;;9.30;;
76597;SDS011;65486;53.144;18.134;2024-02-28T11:28:59;25.50;;;10.90;;
76597;SDS011;65486;53.144;18.134;2024-02-28T11:31:26;22.50;;;10.20;;
76597;SDS011;65486;53.144;18.134;2024-02-28T11:33:54;19.70;;;9.80;;
76597;SDS011;65486;53.144;18.134;2024-02-28T11:36:22;21.40;;;9.10;;
76597;SDS011;65486;53.144;18.134;2024-02-28T11:38:50;19.80;;;8.70;;
76597;SDS011;65486;53.144;18.134;2024-02-28T11:41:24;22.60;;;10.30;;
76597;SDS011;65486;53.144;18.134;2024-02-28T11:43:58;21.30;;;9.80;;
76597;SDS011;65486;53.144;18.134;2024-02-28T11:46:25;20.20;;;9.60;;
76597;SDS011;65486;53.144;18.134;2024-02-28T11:48:52;18.30;;;8.80;;
76597;SDS011;65486;53.144;18.134;2024-02-28T11:51:20;21.90;;;10.40;;
76597;SDS011;65486;53.144;18.134;2024-02-28T11:53:47;19.10;;;8.70;;
76597;SDS011;65486;53.144;18.134;2024-02-28T11:56:15;17.60;;;8.40;;
76597;SDS011;65486;53.144;18.134;2024-02-28T11:58:51;15.40;;;6.60;;
76597;SDS011;65486;53.144;18.134;2024-02-28T12:01:19;20.60;;;10.10;;
76597;SDS011;65486;53.144;18.134;2024-02-28T12:03:58;18.20;;;9.20;;
76597;SDS011;65486;53.144;18.134;2024-02-28T12:06:24;17.90;;;8.90;;
76597;SDS011;65486;53.144;18.134;2024-02-28T12:08:51;22.30;;;10.10;;
76597;SDS011;65486;53.144;18.134;2024-02-28T12:11:18;16.90;;;8.10;;
76597;SDS011;65486;53.144;18.134;2024-02-28T12:13:47;21.30;;;10.00;;
76597;SDS011;65486;53.144;18.134;2024-02-28T12:16:41;17.00;;;8.60;;
76597;SDS011;65486;53.144;18.134;2024-02-28T12:19:11;19.80;;;9.10;;
76597;SDS011;65486;53.144;18.134;2024-02-28T12:21:41;18.00;;;9.00;;
76597;SDS011;65486;53.144;18.134;2024-02-28T12:24:10;24.40;;;11.30;;
76597;SDS011;65486;53.144;18.134;2024-02-28T12:26:40;18.70;;;9.30;;
76597;SDS011;65486;53.144;18.134;2024-02-28T12:29:06;20.70;;;10.50;;
76597;SDS011;65486;53.144;18.134;2024-02-28T12:31:36;22.30;;;11.30;;
76597;SDS011;65486;53.144;18.134;2024-02-28T12:34:03;16.90;;;8.40;;
76597;SDS011;65486;53.144;18.134;2024-02-28T12:36:30;23.00;;;10.80;;
76597;SDS011;65486;53.144;18.134;2024-02-28T12:38:58;16.00;;;8.40;;
76597;SDS011;65486;53.144;18.134;2024-02-28T12:41:34;22.40;;;11.20;;
76597;SDS011;65486;53.144;18.134;2024-02-28T12:44:09;18.60;;;9.40;;
76597;SDS011;65486;53.144;18.134;2024-02-28T12:46:39;18.00;;;8.60;;
76597;SDS011;65486;53.144;18.134;2024-02-28T12:49:06;20.10;;;10.00;;
76597;SDS011;65486;53.144;18.134;2024-02-28T12:54:10;16.80;;;7.40;;
76597;SDS011;65486;53.144;18.134;2024-02-28T12:56:41;16.40;;;7.30;;
76597;SDS011;65486;53.144;18.134;2024-02-28T12:59:14;18.90;;;8.80;;
76597;SDS011;65486;53.144;18.134;2024-02-28T13:01:40;16.10;;;8.00;;
76597;SDS011;65486;53.144;18.134;2024-02-28T13:04:06;20.10;;;9.50;;
76597;SDS011;65486;53.144;18.134;2024-02-28T13:06:33;16.10;;;8.10;;
76597;SDS011;65486;53.144;18.134;2024-02-28T13:08:59;18.60;;;9.00;;
76597;SDS011;65486;53.144;18.134;2024-02-28T13:11:26;18.30;;;8.60;;
76597;SDS011;65486;53.144;18.134;2024-02-28T13:13:55;15.90;;;8.30;;
76597;SDS011;65486;53.144;18.134;2024-02-28T13:16:22;17.00;;;9.00;;
76597;SDS011;65486;53.144;18.134;2024-02-28T13:18:51;17.80;;;8.70;;
76597;SDS011;65486;53.144;18.134;2024-02-28T13:21:18;19.00;;;10.10;;
76597;SDS011;65486;53.144;18.134;2024-02-28T13:23:46;18.80;;;9.00;;
76597;SDS011;65486;53.144;18.134;2024-02-28T13:26:15;20.80;;;10.50;;
76597;SDS011;65486;53.144;18.134;2024-02-28T13:28:47;19.50;;;9.70;;
76597;SDS011;65486;53.144;18.134;2024-02-28T13:31:18;18.60;;;9.10;;
76597;SDS011;65486;53.144;18.134;2024-02-28T13:34:11;17.80;;;8.70;;
76597;SDS011;65486;53.144;18.134;2024-02-28T13:36:37;19.60;;;9.90;;
76597;SDS011;65486;53.144;18.134;2024-02-28T13:39:17;17.20;;;9.00;;
76597;SDS011;65486;53.144;18.134;2024-02-28T13:41:44;17.80;;;9.60;;
76597;SDS011;65486;53.144;18.134;2024-02-28T13:44:11;15.60;;;8.00;;
76597;SDS011;65486;53.144;18.134;2024-02-28T13:46:38;16.00;;;8.00;;
76597;SDS011;65486;53.144;18.134;2024-02-28T13:49:07;13.90;;;7.20;;
76597;SDS011;65486;53.144;18.134;2024-02-28T13:51:34;18.90;;;8.70;;
76597;SDS011;65486;53.144;18.134;2024-02-28T13:54:01;16.30;;;8.20;;
76597;SDS011;65486;53.144;18.134;2024-02-28T13:56:28;16.50;;;8.10;;
76597;SDS011;65486;53.144;18.134;2024-02-28T13:58:56;14.30;;;7.50;;
76597;SDS011;65486;53.144;18.134;2024-02-28T14:01:23;15.00;;;7.30;;
76597;SDS011;65486;53.144;18.134;2024-02-28T14:03:50;17.20;;;8.60;;
76597;SDS011;65486;53.144;18.134;2024-02-28T14:06:16;16.50;;;8.60;;
76597;SDS011;65486;53.144;18.134;2024-02-28T14:08:43;13.90;;;6.70;;
76597;SDS011;65486;53.144;18.134;2024-02-28T14:11:11;15.50;;;7.80;;
76597;SDS011;65486;53.144;18.134;2024-02-28T14:13:41;19.50;;;9.80;;
76597;SDS011;65486;53.144;18.134;2024-02-28T14:16:07;16.50;;;7.80;;
76597;SDS011;65486;53.144;18.134;2024-02-28T14:18:35;14.50;;;6.70;;
76597;SDS011;65486;53.144;18.134;2024-02-28T14:21:04;13.20;;;6.30;;
76597;SDS011;65486;53.144;18.134;2024-02-28T14:23:32;17.10;;;8.60;;
76597;SDS011;65486;53.144;18.134;2024-02-28T14:25:59;16.50;;;8.50;;